CheckWX is a tool to help pilots better visualize weather data.  It is not intended as a substitute for an official pre-flight weather briefing.

12:19:39 UTC

KBJC METAR
Rocky Mountain Metropolitan Airport
Denver, Colorado, USA
Current

28 mins ago

KBJC 181152Z AUTO 07006KT 2 1/2SM SCT008 SCT020 OVC049 M12/M14 A3007 RMK AO2 PWINO
Observed
Feb-18 @ 11:52 UTC
Wind
  • 070° at 6 KTS
Visibility
2 1/2 SM
Flight Rules
IFR
Cloud Levels
  • Scattered at 800' AGL
  • Scattered at 2,000' AGL
  • Overcast at 4,900' AGL
Temperature
-12°C / 10°F
Dewpoint
-14°C / 7°F
Humidity
85%
Altimeter
30.07" Hg
Pressure
1018.32 hPa
Previous

45 mins ago

KBJC 181135Z AUTO 09006KT 4SM SCT008 SCT012 BKN020 M12/M14 A3008 RMK AO2 PWINO
Observed
Feb-18 @ 11:35 UTC
Wind
  • 090° at 6 KTS
Visibility
4 SM
Flight Rules
MVFR
Cloud Levels
  • Scattered at 800' AGL
  • Scattered at 1,200' AGL
  • Broken at 2,000' AGL
Temperature
-12°C / 10°F
Dewpoint
-14°C / 7°F
Humidity
85%
Altimeter
30.08" Hg
Pressure
1018.62 hPa
Previous

1 hour ago

KBJC 181111Z AUTO 09008KT 2 1/2SM BKN006 OVC012 M12/M13 A3007 RMK AO2 PWINO
Observed
Feb-18 @ 11:11 UTC
Wind
  • 090° at 8 KTS
Visibility
2 1/2 SM
Flight Rules
IFR
Cloud Levels
  • Broken at 600' AGL
  • Overcast at 1,200' AGL
Temperature
-12°C / 10°F
Dewpoint
-13°C / 9°F
Humidity
92%
Altimeter
30.07" Hg
Pressure
1018.32 hPa